Time;durP1;ratioP1;P1;durP2;ratioP2;P2;SDS_P1;SDS_P2;PMS_P1;PMS_P2;Temp;Humidity;BMP_temperature;BMP_pressure;BME280_temperature;BME280_humidity;BME280_pressure;Samples;Min_cycle;Max_cycle;Signal;HPM_P1;HPM_P2
2021/10/17 00:01:06;;;;;;;9.85;1.50;;;;;;;13.82;82.80;101955.34;5073119;28;20098;-31
2021/10/17 00:03:34;;;;;;;7.47;1.80;;;;;;;13.82;82.67;101943.28;5072728;28;20059;-37
2021/10/17 00:06:01;;;;;;;7.95;1.60;;;;;;;13.82;83.13;101941.31;5073022;28;20049;-35
2021/10/17 00:08:29;;;;;;;10.45;1.90;;;;;;;13.85;82.75;101937.94;5073226;28;20378;-39
2021/10/17 00:10:57;;;;;;;7.40;1.90;;;;;;;13.85;82.63;101939.91;5069147;28;20052;-33
2021/10/17 00:13:26;;;;;;;8.85;1.83;;;;;;;13.84;82.34;101941.03;5073148;28;20063;-38
2021/10/17 00:15:54;;;;;;;10.60;2.15;;;;;;;13.85;82.40;101934.28;5072533;28;20040;-35
2021/10/17 00:18:22;;;;;;;10.55;2.20;;;;;;;13.85;82.21;101932.31;5072707;28;20041;-37
2021/10/17 00:20:50;;;;;;;9.63;1.80;;;;;;;13.84;82.04;101927.84;5072817;28;20053;-35
2021/10/17 00:23:18;;;;;;;8.85;1.73;;;;;;;13.83;81.93;101930.94;5073068;28;20432;-35
2021/10/17 00:25:45;;;;;;;10.18;1.63;;;;;;;13.83;81.43;101930.94;5071985;28;20064;-34
2021/10/17 00:28:14;;;;;;;6.65;2.00;;;;;;;13.83;81.31;101926.16;5072682;28;20098;-36
2021/10/17 00:30:48;;;;;;;8.05;1.80;;;;;;;13.81;81.10;101928.44;5071160;28;20051;-40
2021/10/17 00:33:17;;;;;;;8.98;1.70;;;;;;;13.83;81.18;101926.16;5071082;28;20079;-35
2021/10/17 00:35:45;;;;;;;8.50;1.60;;;;;;;13.85;81.25;101925.88;5072391;28;20374;-34
2021/10/17 00:38:13;;;;;;;7.53;1.88;;;;;;;13.82;81.20;101930.09;5071428;28;20045;-34
2021/10/17 00:40:41;;;;;;;8.57;1.77;;;;;;;13.82;80.91;101926.47;5071772;28;20048;-34
2021/10/17 00:43:09;;;;;;;8.38;1.80;;;;;;;13.83;80.95;101919.72;5072032;28;20371;-36
2021/10/17 00:45:37;;;;;;;6.22;2.22;;;;;;;13.81;80.49;101911.59;5072061;28;20048;-36
2021/10/17 00:48:06;;;;;;;8.68;2.03;;;;;;;13.82;80.38;101912.44;5072253;28;20059;-33
2021/10/17 00:50:34;;;;;;;11.90;2.10;;;;;;;13.81;80.53;101911.59;5072226;28;20055;-34
2021/10/17 00:53:02;;;;;;;6.55;1.50;;;;;;;13.80;80.12;101909.91;5070265;28;20778;-34
2021/10/17 00:55:30;;;;;;;9.35;2.17;;;;;;;13.80;79.92;101915.53;5057660;28;20047;-37
2021/10/17 00:58:18;;;;;;;8.77;1.88;;;;;;;13.80;80.23;101912.72;5072384;28;20048;-34
2021/10/17 01:00:46;;;;;;;7.80;1.58;;;;;;;13.80;80.22;101912.72;5071654;28;20445;-31
2021/10/17 01:03:16;;;;;;;7.25;1.90;;;;;;;13.77;79.40;101907.72;5072004;28;20083;-29
2021/10/17 01:05:44;;;;;;;5.95;1.70;;;;;;;13.76;79.11;101908.84;5071829;28;20049;-39
2021/10/17 01:08:12;;;;;;;7.57;1.75;;;;;;;13.75;79.02;101913.63;5071370;28;20040;-39
2021/10/17 01:10:42;;;;;;;10.77;1.83;;;;;;;13.75;78.91;101910.81;5070490;28;20143;-37
2021/10/17 01:13:15;;;;;;;8.98;2.20;;;;;;;13.77;78.98;101904.94;5071670;28;20060;-35
2021/10/17 01:15:43;;;;;;;9.32;1.75;;;;;;;13.75;79.25;101912.78;5069868;28;20072;-37
2021/10/17 01:18:11;;;;;;;7.13;1.88;;;;;;;13.78;79.41;101909.41;5066852;28;20450;-37
2021/10/17 01:20:43;;;;;;;9.93;2.17;;;;;;;13.78;79.38;101912.22;5069780;28;20136;-35
2021/10/17 01:23:12;;;;;;;8.55;2.35;;;;;;;13.76;80.06;101903.25;5069206;28;20110;-33
2021/10/17 01:25:40;;;;;;;8.90;2.30;;;;;;;13.74;79.81;101895.13;5070275;28;20048;-35
2021/10/17 01:28:07;;;;;;;12.15;2.67;;;;;;;13.75;79.66;101896.81;5069280;28;20533;-35
2021/10/17 01:30:35;;;;;;;9.32;2.28;;;;;;;13.75;79.42;101896.81;5071696;28;20044;-36
2021/10/17 01:33:03;;;;;;;7.60;2.05;;;;;;;13.74;79.05;101894.28;5070980;28;20041;-35
2021/10/17 01:35:31;;;;;;;9.18;2.30;;;;;;;13.73;79.73;101893.44;5060208;28;20048;-35
2021/10/17 01:38:00;;;;;;;7.68;2.00;;;;;;;13.73;79.34;101895.41;5069874;28;20492;-38
2021/10/17 01:40:29;;;;;;;9.25;2.10;;;;;;;13.72;79.47;101888.13;5070101;28;20040;-35
2021/10/17 01:42:58;;;;;;;10.65;2.40;;;;;;;13.74;79.62;101883.06;5069694;28;20052;-31
2021/10/17 01:45:30;;;;;;;6.60;1.98;;;;;;;13.75;79.44;101881.94;5067038;28;20059;-37
2021/10/17 01:47:58;;;;;;;10.85;1.90;;;;;;;13.75;79.43;101884.75;5071225;28;20056;-31
2021/10/17 01:50:26;;;;;;;9.60;2.15;;;;;;;13.75;79.39;101885.59;5068418;28;20056;-39
2021/10/17 01:52:54;;;;;;;14.13;2.45;;;;;;;13.75;79.28;101885.59;5071276;28;20052;-36
2021/10/17 01:55:24;;;;;;;10.68;2.63;;;;;;;13.76;78.97;101883.63;5069512;28;20052;-40
2021/10/17 01:57:52;;;;;;;9.75;2.28;;;;;;;13.75;79.21;101893.16;5069145;28;20113;-40
2021/10/17 02:00:20;;;;;;;10.10;2.17;;;;;;;13.77;79.43;101886.13;5069180;28;20053;-34
2021/10/17 02:02:52;;;;;;;12.75;2.45;;;;;;;13.77;79.67;101882.47;5069229;28;20054;-33
2021/10/17 02:05:26;;;;;;;8.25;2.20;;;;;;;13.74;79.55;101883.91;5069872;28;20055;-33
2021/10/17 02:07:57;;;;;;;10.10;2.00;;;;;;;13.73;79.38;101885.03;5055351;28;20131;-32
2021/10/17 02:10:26;;;;;;;7.63;2.10;;;;;;;13.73;79.54;101875.78;5068992;28;20067;-32
2021/10/17 02:13:00;;;;;;;9.43;2.10;;;;;;;13.71;79.66;101886.47;5069549;28;20056;-37
2021/10/17 02:15:28;;;;;;;9.43;2.03;;;;;;;13.70;80.11;101882.81;5069458;28;20052;-35
2021/10/17 02:17:56;;;;;;;15.15;2.72;;;;;;;13.68;80.27;101885.06;5070624;28;20048;-37
2021/10/17 02:20:24;;;;;;;13.90;2.47;;;;;;;13.67;80.46;101886.22;5069568;28;20040;-33
2021/10/17 02:22:52;;;;;;;9.77;2.17;;;;;;;13.65;80.19;101873.59;5070750;28;20040;-38
2021/10/17 02:25:21;;;;;;;9.88;2.30;;;;;;;13.66;79.76;101880.88;5068728;28;20102;-30
2021/10/17 02:27:51;;;;;;;11.60;2.40;;;;;;;13.69;79.54;101877.50;5069686;28;20054;-39
2021/10/17 02:30:18;;;;;;;11.63;2.85;;;;;;;13.70;79.31;101880.00;5069275;28;20821;-38
2021/10/17 02:32:56;;;;;;;11.00;2.70;;;;;;;13.72;79.11;101885.31;5069216;28;20084;-35
2021/10/17 02:35:30;;;;;;;10.45;2.15;;;;;;;13.74;79.11;101883.06;5069040;28;20055;-33
2021/10/17 02:37:58;;;;;;;12.40;2.67;;;;;;;13.74;79.00;101883.91;5070258;28;20049;-33
2021/10/17 02:40:32;;;;;;;9.85;2.50;;;;;;;13.74;78.42;101883.06;5069069;28;20051;-35
2021/10/17 02:43:03;;;;;;;8.38;2.20;;;;;;;13.77;78.18;101876.88;5069366;28;20056;-41
2021/10/17 02:45:31;;;;;;;9.70;2.25;;;;;;;13.78;77.86;101884.16;5068774;28;20048;-35
2021/10/17 02:48:00;;;;;;;10.38;2.58;;;;;;;13.79;77.83;101872.59;5069255;28;20076;-33
2021/10/17 02:50:29;;;;;;;9.40;2.70;;;;;;;13.81;77.66;101877.94;5069027;28;20036;-38
2021/10/17 02:52:57;;;;;;;9.68;2.35;;;;;;;13.81;77.81;101872.31;5070343;28;20045;-38
2021/10/17 02:55:27;;;;;;;10.70;2.63;;;;;;;13.83;77.53;101870.06;5069051;28;20446;-33
2021/10/17 02:57:55;;;;;;;10.85;2.40;;;;;;;13.81;77.58;101866.72;5069328;28;20498;-34
2021/10/17 03:00:26;;;;;;;9.85;2.42;;;;;;;13.84;77.47;101868.09;5068437;28;20071;-37
2021/10/17 03:02:54;;;;;;;6.70;2.05;;;;;;;13.85;77.30;101878.19;5069005;28;20045;-36
2021/10/17 03:05:23;;;;;;;10.00;2.38;;;;;;;13.85;77.45;101869.75;5069011;28;20072;-34
2021/10/17 03:07:51;;;;;;;7.68;2.50;;;;;;;13.83;77.07;101861.63;5068484;28;20052;-34
2021/10/17 03:10:22;;;;;;;12.23;2.50;;;;;;;13.84;76.87;101860.50;5070461;28;20456;-36
2021/10/17 03:12:52;;;;;;;8.95;2.33;;;;;;;13.81;76.29;101855.47;5071160;28;20270;-35
2021/10/17 03:15:22;;;;;;;8.35;2.10;;;;;;;13.83;75.63;101858.84;5072186;28;20113;-39
2021/10/17 03:17:51;;;;;;;8.45;2.38;;;;;;;13.84;75.08;101857.69;5072790;28;20064;-39
2021/10/17 03:20:18;;;;;;;10.15;2.13;;;;;;;13.84;75.04;101862.47;5057754;28;20044;-34
2021/10/17 03:22:47;;;;;;;9.60;1.83;;;;;;;13.88;74.95;101860.75;5072646;28;20056;-39
2021/10/17 03:25:15;;;;;;;7.90;2.08;;;;;;;13.88;75.03;101858.78;5072596;28;20037;-36
2021/10/17 03:27:46;;;;;;;9.15;2.13;;;;;;;13.89;75.21;101863.25;5071928;28;20519;-33
2021/10/17 03:30:23;;;;;;;5.53;2.03;;;;;;;13.89;75.13;101868.03;5072628;28;20385;-34
2021/10/17 03:32:53;;;;;;;7.68;2.13;;;;;;;13.89;75.16;101866.06;5072465;28;20531;-39
2021/10/17 03:35:21;;;;;;;8.38;2.03;;;;;;;13.88;75.54;101866.38;5071787;28;20056;-35
2021/10/17 03:37:48;;;;;;;11.65;2.13;;;;;;;13.85;75.05;101862.19;5072237;28;20144;-36
2021/10/17 03:40:17;;;;;;;8.18;2.10;;;;;;;13.88;74.79;101857.94;5072796;28;20048;-36
2021/10/17 03:42:46;;;;;;;8.80;2.10;;;;;;;13.87;74.66;101864.69;5071574;28;20040;-32
2021/10/17 03:45:14;;;;;;;8.40;2.17;;;;;;;13.87;74.22;101857.13;5072508;28;20097;-35
2021/10/17 03:47:41;;;;;;;8.40;2.08;;;;;;;13.88;74.74;101864.41;5073183;28;20045;-30
2021/10/17 03:50:11;;;;;;;9.63;2.17;;;;;;;13.90;75.14;101866.91;5071693;28;20068;-37
2021/10/17 03:52:38;;;;;;;10.32;2.78;;;;;;;13.89;75.57;101863.25;5071604;28;20040;-32
2021/10/17 03:55:09;;;;;;;7.40;2.17;;;;;;;13.89;75.70;101863.25;5073661;28;20494;-40
2021/10/17 03:57:37;;;;;;;7.63;2.35;;;;;;;13.87;75.82;101868.34;5072768;28;20048;-39
2021/10/17 04:00:07;;;;;;;7.28;2.28;;;;;;;13.85;76.35;101862.19;5072124;28;20096;-41
2021/10/17 04:02:39;;;;;;;10.70;2.47;;;;;;;13.85;76.36;101867.78;5072515;28;20076;-39
2021/10/17 04:05:11;;;;;;;10.73;2.60;;;;;;;13.85;76.29;101859.38;5071895;28;20052;-34
2021/10/17 04:07:39;;;;;;;8.52;2.67;;;;;;;13.86;76.27;101861.03;5071747;28;20074;-40
2021/10/17 04:10:09;;;;;;;9.63;2.72;;;;;;;13.86;76.62;101858.25;5072783;28;20047;-36
2021/10/17 04:12:37;;;;;;;9.30;2.55;;;;;;;13.87;76.66;101857.13;5071404;28;20118;-33
2021/10/17 04:15:07;;;;;;;10.60;2.25;;;;;;;13.88;76.80;101855.13;5071977;28;20048;-37
2021/10/17 04:17:40;;;;;;;6.53;1.95;;;;;;;13.87;77.10;101851.50;5070935;28;20088;-33
2021/10/17 04:20:11;;;;;;;9.68;2.67;;;;;;;13.89;77.40;101854.00;5073100;28;20072;-36
2021/10/17 04:22:40;;;;;;;6.57;2.20;;;;;;;13.88;77.51;101857.94;5073150;28;20048;-42
2021/10/17 04:25:10;;;;;;;8.45;2.40;;;;;;;13.87;77.22;101848.69;5070459;28;20055;-37
2021/10/17 04:27:38;;;;;;;10.27;2.75;;;;;;;13.86;77.40;101855.44;5071479;28;20460;-40
2021/10/17 04:30:09;;;;;;;10.88;2.70;;;;;;;13.86;77.19;101852.63;5071348;28;20069;-37
2021/10/17 04:32:36;;;;;;;9.60;2.60;;;;;;;13.86;77.04;101849.81;5072335;28;20059;-31
2021/10/17 04:35:05;;;;;;;7.00;2.42;;;;;;;13.85;77.73;101847.31;5072670;28;20055;-38
2021/10/17 04:37:35;;;;;;;11.02;2.92;;;;;;;13.88;77.53;101855.13;5070804;28;20139;-38
2021/10/17 04:40:03;;;;;;;8.98;2.60;;;;;;;13.86;77.45;101854.59;5072408;28;20076;-35
2021/10/17 04:42:31;;;;;;;10.18;2.53;;;;;;;13.86;77.72;101863.03;5071107;28;20056;-34
2021/10/17 04:45:00;;;;;;;10.65;3.25;;;;;;;13.84;77.91;101868.94;5072155;28;20127;-34
2021/10/17 04:47:28;;;;;;;7.18;2.33;;;;;;;13.85;77.95;101862.19;5071150;28;20388;-36
2021/10/17 04:49:55;;;;;;;7.30;2.35;;;;;;;13.83;77.67;101858.00;5072188;28;20080;-37
2021/10/17 04:52:23;;;;;;;12.63;2.70;;;;;;;13.81;77.87;101869.50;5071802;28;20398;-38
2021/10/17 04:54:52;;;;;;;10.55;2.33;;;;;;;13.83;77.76;101872.03;5071777;28;20044;-40
2021/10/17 04:57:23;;;;;;;7.75;2.42;;;;;;;13.83;77.99;101866.41;5071001;28;20070;-30
2021/10/17 04:59:52;;;;;;;9.40;2.70;;;;;;;13.84;78.49;101866.13;5069917;28;20072;-31
2021/10/17 05:02:20;;;;;;;12.48;2.60;;;;;;;13.84;79.48;101871.72;5070715;28;20048;-36
2021/10/17 05:04:48;;;;;;;13.20;3.28;;;;;;;13.85;80.19;101875.38;5070357;28;20058;-35
2021/10/17 05:07:17;;;;;;;8.95;2.75;;;;;;;13.82;80.70;101865.56;5070176;28;20044;-42
2021/10/17 05:09:45;;;;;;;10.52;3.00;;;;;;;13.80;81.39;101867.84;5070409;28;20052;-34
2021/10/17 05:12:15;;;;;;;12.32;3.22;;;;;;;13.79;81.72;101871.78;5070807;28;20110;-34
2021/10/17 05:14:42;;;;;;;9.32;3.20;;;;;;;13.77;81.98;101877.72;5069635;28;20064;-35
2021/10/17 05:17:10;;;;;;;12.93;2.95;;;;;;;13.77;82.03;101876.88;5070249;28;20048;-35
2021/10/17 05:19:38;;;;;;;15.98;3.75;;;;;;;13.75;82.38;101873.53;5069594;28;20056;-31
2021/10/17 05:22:06;;;;;;;9.60;3.40;;;;;;;13.72;82.89;101886.16;5068083;28;20058;-35
2021/10/17 05:24:35;;;;;;;13.30;3.60;;;;;;;13.71;83.53;101884.50;5069773;28;20053;-34
2021/10/17 05:27:03;;;;;;;11.88;3.30;;;;;;;13.71;83.39;101883.66;5069695;28;20040;-30
2021/10/17 05:29:32;;;;;;;8.73;3.17;;;;;;;13.69;83.81;101886.75;5070166;28;20048;-39
2021/10/17 05:32:00;;;;;;;13.70;3.22;;;;;;;13.67;83.91;101885.38;5069761;28;20048;-35
2021/10/17 05:34:29;;;;;;;12.73;3.10;;;;;;;13.67;83.69;101880.59;5069553;28;20059;-31
2021/10/17 05:36:57;;;;;;;13.25;3.80;;;;;;;13.67;83.81;101882.56;5069352;28;20374;-38
2021/10/17 05:39:25;;;;;;;13.18;3.78;;;;;;;13.66;83.77;101883.69;5070144;28;20139;-38
2021/10/17 05:41:53;;;;;;;12.18;3.55;;;;;;;13.66;83.79;101884.53;5069347;28;20573;-35
2021/10/17 05:44:21;;;;;;;11.90;3.28;;;;;;;13.65;83.62;101880.06;5069988;28;20062;-36
2021/10/17 05:46:50;;;;;;;12.52;3.17;;;;;;;13.65;83.58;101876.41;5069483;28;20048;-35
2021/10/17 05:49:18;;;;;;;7.82;3.25;;;;;;;13.62;83.76;101880.63;5069519;28;20127;-40
2021/10/17 05:51:46;;;;;;;15.38;3.85;;;;;;;13.61;83.93;101881.78;5069383;28;20139;-37
2021/10/17 05:54:14;;;;;;;14.18;3.97;;;;;;;13.59;83.95;101884.03;5071507;28;20045;-35
2021/10/17 05:56:42;;;;;;;9.95;3.58;;;;;;;13.58;84.12;101879.59;5068981;28;20432;-37
2021/10/17 05:59:10;;;;;;;9.85;3.35;;;;;;;13.59;83.89;101875.63;5069832;28;20497;-39
2021/10/17 06:01:39;;;;;;;10.88;3.35;;;;;;;13.59;83.83;101883.22;5069190;28;20048;-34
2021/10/17 06:04:17;;;;;;;9.85;3.20;;;;;;;13.58;83.82;101878.75;5069267;28;20045;-33
2021/10/17 06:06:55;;;;;;;9.90;3.55;;;;;;;13.59;83.70;101883.22;5069479;28;20098;-34
2021/10/17 06:09:23;;;;;;;15.07;3.72;;;;;;;13.59;83.86;101878.41;5070114;28;20044;-34
2021/10/17 06:11:51;;;;;;;10.77;3.53;;;;;;;13.59;83.85;101883.22;5069138;28;20076;-40
2021/10/17 06:14:19;;;;;;;10.73;3.30;;;;;;;13.58;83.82;101879.59;5070199;28;20140;-37
2021/10/17 06:16:47;;;;;;;14.38;3.85;;;;;;;13.55;84.07;101880.16;5068800;28;20424;-34
2021/10/17 06:19:15;;;;;;;13.80;3.63;;;;;;;13.59;84.01;101886.03;5069276;28;20087;-39
2021/10/17 06:21:50;;;;;;;9.88;3.17;;;;;;;13.60;83.89;101887.66;5069303;28;20135;-36
2021/10/17 06:24:18;;;;;;;11.57;3.97;;;;;;;13.58;83.86;101893.59;5070274;28;20057;-35
2021/10/17 06:26:46;;;;;;;8.38;3.33;;;;;;;13.58;83.85;101893.59;5070664;28;20068;-36
2021/10/17 06:29:14;;;;;;;16.20;3.50;;;;;;;13.59;83.76;101898.06;5070515;28;20405;-33
2021/10/17 06:31:44;;;;;;;11.55;3.70;;;;;;;13.58;83.87;101898.38;5054535;28;20049;-39
2021/10/17 06:34:12;;;;;;;10.48;3.83;;;;;;;13.57;84.37;101891.09;5069468;28;20052;-35
2021/10/17 06:36:40;;;;;;;15.65;4.18;;;;;;;13.58;84.35;101892.75;5069197;28;20099;-40
2021/10/17 06:39:10;;;;;;;12.05;3.83;;;;;;;13.62;84.03;101894.66;5068547;28;20060;-37
2021/10/17 06:41:38;;;;;;;12.50;3.45;;;;;;;13.63;83.95;101892.69;5070684;28;20036;-38
2021/10/17 06:44:16;;;;;;;12.02;3.58;;;;;;;13.64;83.67;101897.19;5070134;28;20048;-34
2021/10/17 06:46:46;;;;;;;14.75;3.92;;;;;;;13.67;83.73;101899.41;5069969;28;20417;-40
2021/10/17 06:49:15;;;;;;;13.85;3.45;;;;;;;13.67;84.20;101899.41;5069953;28;20040;-41
2021/10/17 06:51:43;;;;;;;12.45;3.70;;;;;;;13.69;84.07;101897.13;5072396;28;20048;-39
2021/10/17 06:54:13;;;;;;;11.80;3.78;;;;;;;13.69;84.14;101908.34;5073246;28;20139;-38
2021/10/17 06:56:41;;;;;;;13.00;3.67;;;;;;;13.68;84.20;101901.91;5073287;28;20055;-34
2021/10/17 06:59:10;;;;;;;9.90;3.15;;;;;;;13.68;84.37;101899.09;5072360;28;20122;-33
2021/10/17 07:01:39;;;;;;;12.00;3.70;;;;;;;13.69;84.31;101913.97;5073098;28;20414;-38
2021/10/17 07:04:08;;;;;;;9.48;3.42;;;;;;;13.70;84.35;101896.00;5072882;28;20056;-35
2021/10/17 07:06:39;;;;;;;12.10;3.63;;;;;;;13.70;84.18;101904.41;5072749;28;20405;-34
2021/10/17 07:09:10;;;;;;;11.65;3.92;;;;;;;13.69;84.10;101897.13;5072748;28;20060;-37
2021/10/17 07:11:44;;;;;;;17.20;4.35;;;;;;;13.71;84.41;101889.25;5061696;28;20055;-36
2021/10/17 07:14:26;;;;;;;14.48;3.63;;;;;;;13.72;84.45;101894.59;5071932;28;20083;-34
2021/10/17 07:17:10;;;;;;;11.55;3.60;;;;;;;13.74;84.42;101894.28;5073116;28;20424;-33
2021/10/17 07:19:39;;;;;;;13.25;3.60;;;;;;;13.78;84.00;101898.19;5072166;28;20423;-35
2021/10/17 07:22:06;;;;;;;13.93;3.95;;;;;;;13.79;84.25;101889.44;5071253;28;20052;-33
2021/10/17 07:24:39;;;;;;;11.27;3.42;;;;;;;13.80;84.35;101893.09;5071584;28;20079;-39
2021/10/17 07:27:08;;;;;;;10.82;3.80;;;;;;;13.84;84.26;101898.94;5071230;28;20052;-32
2021/10/17 07:29:36;;;;;;;10.73;3.80;;;;;;;13.82;84.32;101893.63;5073148;28;20032;-35
2021/10/17 07:32:05;;;;;;;10.27;3.13;;;;;;;13.83;84.16;101886.88;5071685;28;20048;-32
2021/10/17 07:34:33;;;;;;;8.82;3.53;;;;;;;13.83;84.22;101892.50;5070455;28;20117;-36
2021/10/17 07:37:01;;;;;;;9.93;3.60;;;;;;;13.83;84.30;101892.50;5066282;28;20050;-37
2021/10/17 07:39:34;;;;;;;10.93;3.17;;;;;;;13.84;84.00;101905.41;5071029;28;20056;-39
2021/10/17 07:42:03;;;;;;;13.85;3.47;;;;;;;13.84;84.48;101887.72;5070854;28;20040;-42
2021/10/17 07:44:35;;;;;;;10.68;3.40;;;;;;;13.84;84.45;101894.19;5071606;28;20052;-39
2021/10/17 07:47:11;;;;;;;15.63;3.92;;;;;;;13.84;84.54;101899.78;5071255;28;20421;-34
2021/10/17 07:49:49;;;;;;;13.98;3.90;;;;;;;13.83;84.64;101903.72;5071373;28;20102;-37
2021/10/17 07:52:20;;;;;;;12.77;4.28;;;;;;;13.84;84.65;101894.19;5070776;28;20135;-35
2021/10/17 07:54:49;;;;;;;12.73;4.13;;;;;;;13.84;84.83;101894.19;5072065;28;20057;-34
2021/10/17 07:57:45;;;;;;;13.15;4.35;;;;;;;13.88;84.96;101905.66;5071430;28;20037;-34
2021/10/17 08:00:19;;;;;;;16.58;3.88;;;;;;;13.89;84.96;101907.31;5070079;28;20048;-33
2021/10/17 08:03:08;;;;;;;11.52;3.90;;;;;;;13.92;84.81;101909.53;5023801;28;20056;-33
2021/10/17 08:05:39;;;;;;;9.70;3.55;;;;;;;13.96;84.66;101902.22;5064080;28;20044;-35
2021/10/17 08:08:13;;;;;;;10.45;3.47;;;;;;;13.97;84.70;101906.69;5071762;28;20041;-37
2021/10/17 08:10:43;;;;;;;15.80;4.00;;;;;;;14.02;84.31;101904.66;5070888;28;20087;-33
2021/10/17 08:13:13;;;;;;;13.10;4.32;;;;;;;14.07;84.40;101915.81;5070747;28;20470;-39
2021/10/17 08:15:46;;;;;;;15.48;4.22;;;;;;;14.16;84.17;101901.16;5071075;28;20129;-38
2021/10/17 08:18:15;;;;;;;14.60;4.72;;;;;;;14.23;83.78;101901.63;5071547;28;20540;-36
2021/10/17 08:20:51;;;;;;;10.85;4.20;;;;;;;14.31;83.59;101906.59;5071506;28;20139;-33
2021/10/17 08:23:21;;;;;;;13.85;4.30;;;;;;;14.43;83.37;101905.03;5071872;28;20075;-37
2021/10/17 08:25:50;;;;;;;15.73;4.60;;;;;;;14.57;82.77;101907.97;5071485;28;20058;-40
2021/10/17 08:28:19;;;;;;;11.35;4.28;;;;;;;14.66;82.54;101903.34;5071403;28;20052;-36
2021/10/17 08:30:50;;;;;;;9.13;3.88;;;;;;;14.80;82.44;101907.09;5070953;28;20196;-33
2021/10/17 08:33:19;;;;;;;15.90;3.90;;;;;;;14.93;82.19;101907.50;5071357;28;20051;-30
2021/10/17 08:35:48;;;;;;;13.95;4.88;;;;;;;14.94;81.23;101907.19;5070778;28;20059;-33
2021/10/17 08:38:16;;;;;;;14.30;4.05;;;;;;;14.94;80.96;101914.78;5064718;28;20144;-36
2021/10/17 08:40:49;;;;;;;12.88;3.83;;;;;;;14.91;80.91;101906.94;5070947;28;20093;-36
2021/10/17 08:43:22;;;;;;;12.43;4.25;;;;;;;14.87;80.54;101915.16;5070273;28;20044;-33
2021/10/17 08:46:11;;;;;;;12.75;4.07;;;;;;;14.83;80.49;101909.28;5071012;28;20100;-35
2021/10/17 08:48:51;;;;;;;10.25;3.78;;;;;;;14.81;80.55;101907.91;5066536;28;20052;-38
2021/10/17 08:51:23;;;;;;;10.00;4.15;;;;;;;14.77;80.30;101912.50;5070491;28;20062;-33
2021/10/17 08:54:00;;;;;;;12.70;3.85;;;;;;;14.69;79.87;101910.34;5066895;28;20059;-39
2021/10/17 08:56:31;;;;;;;10.52;3.70;;;;;;;14.65;80.05;101912.06;5056204;28;20041;-33
2021/10/17 08:59:00;;;;;;;7.65;3.30;;;;;;;14.63;80.33;101917.16;5065098;28;20052;-36
2021/10/17 09:01:45;;;;;;;12.25;3.90;;;;;;;14.58;80.15;101909.66;5070795;28;20049;-35
2021/10/17 09:04:17;;;;;;;12.85;3.80;;;;;;;14.54;80.07;101914.19;5070778;28;20052;-31
2021/10/17 09:06:57;;;;;;;;;;;;;;;14.42;79.82;101909.00;5056859;28;20048;-38
2021/10/17 09:09:25;;;;;;;12.73;3.75;;;;;;;14.41;80.68;101910.13;5070537;28;20003;-38
2021/10/17 09:11:58;;;;;;;9.82;3.65;;;;;;;14.42;80.90;101899.72;5069814;28;20051;-32
2021/10/17 09:14:28;;;;;;;9.63;3.67;;;;;;;14.45;80.92;101916.81;5071716;28;20052;-35
2021/10/17 09:16:58;;;;;;;11.85;3.80;;;;;;;14.45;81.05;101911.19;5071413;28;20047;-35
2021/10/17 09:19:28;;;;;;;10.52;3.60;;;;;;;14.45;80.98;101911.19;5071002;28;20055;-37
2021/10/17 09:21:58;;;;;;;12.98;4.00;;;;;;;14.46;80.77;101906.41;5071810;28;20047;-37
2021/10/17 09:24:28;;;;;;;9.93;3.47;;;;;;;14.44;80.86;101895.47;5071518;28;20451;-40
2021/10/17 09:27:13;;;;;;;11.77;3.85;;;;;;;14.47;80.90;101896.88;5070991;28;20041;-36
2021/10/17 09:29:43;;;;;;;15.85;5.05;;;;;;;14.46;80.83;101901.63;5071218;28;20067;-39
2021/10/17 09:32:17;;;;;;;10.73;4.13;;;;;;;14.52;80.90;101901.59;5071223;28;20051;-33
2021/10/17 09:34:56;;;;;;;14.15;4.40;;;;;;;14.56;80.75;101905.47;5070747;28;20048;-40
2021/10/17 09:37:31;;;;;;;9.93;3.90;;;;;;;14.53;80.54;101906.91;5071304;28;20059;-36
2021/10/17 09:40:21;;;;;;;12.98;4.30;;;;;;;14.51;80.39;101906.38;5070568;28;20489;-38
2021/10/17 09:43:13;;;;;;;14.68;4.20;;;;;;;14.51;80.25;101903.56;5057499;28;20052;-33
2021/10/17 09:46:09;;;;;;;13.40;4.22;;;;;;;14.53;80.54;101911.69;5067006;28;20110;-35
2021/10/17 09:48:39;;;;;;;13.75;4.60;;;;;;;14.53;80.57;101915.34;5070585;28;20052;-38
2021/10/17 09:51:08;;;;;;;11.93;3.90;;;;;;;14.54;80.22;101904.94;5071116;28;20052;-35
2021/10/17 09:53:42;;;;;;;17.63;5.20;;;;;;;14.53;80.25;101901.28;5071078;28;20138;-37
2021/10/17 09:56:22;;;;;;;14.18;4.50;;;;;;;14.54;80.30;101894.53;5070573;28;20041;-35
2021/10/17 09:58:53;;;;;;;13.75;4.50;;;;;;;14.52;79.58;101899.63;5071041;28;20056;-38
2021/10/17 10:01:23;;;;;;;13.05;4.40;;;;;;;14.56;79.65;101897.03;5070104;28;20052;-39
2021/10/17 10:03:54;;;;;;;13.60;4.32;;;;;;;14.63;79.68;101903.13;5071071;28;20490;-33
2021/10/17 10:06:23;;;;;;;17.55;4.75;;;;;;;14.68;79.31;101900.25;5070806;28;20409;-39
2021/10/17 10:08:55;;;;;;;12.35;4.03;;;;;;;14.72;79.15;101904.97;5070340;28;20044;-34
2021/10/17 10:11:25;;;;;;;13.43;3.45;;;;;;;14.75;78.88;101904.38;5065318;28;20044;-32
2021/10/17 10:13:55;;;;;;;16.00;4.90;;;;;;;14.82;78.86;101912.41;5070690;28;20052;-37
2021/10/17 10:16:25;;;;;;;10.95;3.72;;;;;;;14.92;78.71;101914.25;5070003;28;20134;-32
2021/10/17 10:18:57;;;;;;;9.82;4.22;;;;;;;15.01;78.71;101916.06;5070674;28;20052;-35
2021/10/17 10:21:25;;;;;;;14.25;3.95;;;;;;;15.13;78.42;101922.09;5070345;28;20041;-34
2021/10/17 10:23:56;;;;;;;13.93;4.43;;;;;;;15.20;77.75;101918.03;5070426;28;20060;-38
2021/10/17 10:26:26;;;;;;;10.20;3.78;;;;;;;15.22;77.38;101916.59;5070561;28;20044;-34
2021/10/17 10:28:55;;;;;;;11.02;4.05;;;;;;;15.23;77.38;101918.25;5070791;28;20072;-34
2021/10/17 10:31:46;;;;;;;18.70;4.45;;;;;;;15.24;76.68;101921.91;5069748;28;20094;-37
2021/10/17 10:34:49;;;;;;;9.63;3.70;;;;;;;15.23;77.23;101928.69;5070756;28;20045;-36
2021/10/17 10:37:18;;;;;;;11.40;3.47;;;;;;;15.14;77.12;101926.56;5065092;28;20080;-38
2021/10/17 10:40:15;;;;;;;11.80;3.65;;;;;;;15.13;77.29;101926.88;5070493;28;20048;-33
2021/10/17 10:42:46;;;;;;;9.68;3.03;;;;;;;15.07;77.41;101923.28;5067321;28;20056;-36
2021/10/17 10:45:19;;;;;;;13.85;4.20;;;;;;;15.04;77.41;101935.13;5070244;28;20482;-38
2021/10/17 10:47:48;;;;;;;12.80;3.75;;;;;;;14.99;77.74;101925.94;5070683;28;20083;-42
2021/10/17 10:50:34;;;;;;;10.63;3.78;;;;;;;15.01;77.90;101934.91;5070139;28;20047;-38
2021/10/17 10:53:02;;;;;;;9.40;3.10;;;;;;;14.94;78.25;101926.03;5066795;28;20379;-35
2021/10/17 10:55:44;;;;;;;9.63;3.35;;;;;;;14.90;78.24;101933.38;5070251;28;20040;-35
2021/10/17 10:58:22;;;;;;;13.00;3.05;;;;;;;14.86;78.44;101926.69;5070097;28;20056;-37
2021/10/17 11:00:50;;;;;;;11.00;3.28;;;;;;;14.83;78.71;101925.31;5057482;28;20049;-38
2021/10/17 11:03:19;;;;;;;12.73;3.20;;;;;;;14.87;78.62;101937.63;5070278;28;20083;-34
2021/10/17 11:06:19;;;;;;;10.98;3.13;;;;;;;14.89;78.47;101926.09;5069672;28;20401;-37
2021/10/17 11:09:21;;;;;;;12.70;3.20;;;;;;;14.83;78.78;101914.91;5069125;28;20056;-35
2021/10/17 11:11:49;;;;;;;11.00;3.38;;;;;;;14.82;78.85;101923.63;5069624;28;20051;-36
2021/10/17 11:14:17;;;;;;;10.73;2.95;;;;;;;14.87;78.83;101923.56;5069917;28;20052;-35
2021/10/17 11:16:45;;;;;;;13.70;3.83;;;;;;;14.91;78.60;101923.81;5069934;28;20533;-34
2021/10/17 11:19:14;;;;;;;12.18;3.78;;;;;;;14.94;78.93;101917.59;5069765;28;20053;-34
2021/10/17 11:21:43;;;;;;;12.02;3.17;;;;;;;14.93;78.70;101921.53;5070204;28;20051;-32
2021/10/17 11:24:19;;;;;;;9.00;2.42;;;;;;;14.97;78.75;101917.00;5070162;28;20048;-34
2021/10/17 11:26:47;;;;;;;8.70;2.88;;;;;;;14.97;78.62;101920.63;5069616;28;20576;-33
2021/10/17 11:29:15;;;;;;;10.10;2.85;;;;;;;14.98;78.52;101915.84;5070235;28;20053;-36
2021/10/17 11:31:42;;;;;;;11.13;3.10;;;;;;;15.02;78.75;101919.72;5070276;28;20097;-36
2021/10/17 11:34:10;;;;;;;9.05;3.15;;;;;;;15.04;78.71;101923.88;5070693;28;20076;-34
2021/10/17 11:36:38;;;;;;;11.23;3.30;;;;;;;15.07;78.20;101914.84;5073610;28;20045;-37
2021/10/17 11:39:07;;;;;;;9.65;2.95;;;;;;;15.08;77.80;101913.72;5073328;28;20443;-36